createdAt,value
2023-07-03T00:02:33.313Z,96517.75
2023-07-03T00:05:37.763Z,96519.88
2023-07-03T00:08:42.202Z,96526.72
2023-07-03T00:11:46.628Z,96526.00
2023-07-03T00:14:51.097Z,96530.31
2023-07-03T00:17:55.514Z,96529.72
2023-07-03T00:20:59.953Z,96537.78
2023-07-03T00:24:04.519Z,96532.34
2023-07-03T00:27:08.941Z,96525.06
2023-07-03T00:30:13.845Z,96532.50
2023-07-03T00:33:18.227Z,96534.63
2023-07-03T00:36:22.669Z,96538.84
2023-07-03T00:39:27.058Z,96538.38
2023-07-03T00:45:54.769Z,96549.75
2023-07-03T00:48:59.875Z,96550.69
2023-07-03T00:52:05.423Z,96547.53
2023-07-03T00:55:12.676Z,96554.28
2023-07-03T00:58:20.165Z,96549.13
2023-07-03T01:01:24.735Z,96549.69
2023-07-03T01:04:38.918Z,96553.53
2023-07-03T01:07:43.877Z,96558.25
2023-07-03T01:10:48.602Z,96553.88
2023-07-03T01:13:54.796Z,96555.31
2023-07-03T01:16:59.621Z,96553.34
2023-07-03T01:20:05.655Z,96549.50
2023-07-03T01:23:29.323Z,96560.47
2023-07-03T01:26:34.125Z,96553.28
2023-07-03T01:29:41.030Z,96550.94
2023-07-03T01:32:47.276Z,96552.19
2023-07-03T01:35:53.689Z,96552.19
2023-07-03T01:38:58.517Z,96549.81
2023-07-03T01:42:03.477Z,96544.78
2023-07-03T01:45:08.857Z,96544.59
2023-07-03T01:48:15.563Z,96546.81
2023-07-03T01:51:25.896Z,96546.06
2023-07-03T01:54:36.013Z,96546.38
2023-07-03T01:57:51.924Z,96552.34
2023-07-03T02:01:00.801Z,96545.94
2023-07-03T02:04:07.018Z,96550.72
2023-07-03T02:07:12.554Z,96559.44
2023-07-03T02:10:17.121Z,96557.59
2023-07-03T02:13:22.281Z,96550.84
2023-07-03T02:16:32.083Z,96550.84
2023-07-03T02:19:37.074Z,96554.78
2023-07-03T02:22:42.335Z,96557.47
2023-07-03T02:25:46.856Z,96558.41
2023-07-03T02:28:52.936Z,96561.81
2023-07-03T02:31:57.377Z,96562.78
2023-07-03T02:35:01.848Z,96564.63
2023-07-03T02:38:06.242Z,96560.97
2023-07-03T02:41:11.077Z,96566.25
2023-07-03T02:44:15.601Z,96568.97
2023-07-03T02:47:20.357Z,96566.13
2023-07-03T02:50:26.931Z,96566.13
2023-07-03T02:53:31.489Z,96565.91
2023-07-03T02:56:43.287Z,96570.03
2023-07-03T02:59:47.812Z,96569.22
2023-07-03T03:02:53.336Z,96563.00
2023-07-03T03:05:59.830Z,96567.63
2023-07-03T03:09:06.237Z,96572.25
2023-07-03T03:12:11.996Z,96574.06
2023-07-03T03:15:19.123Z,96577.22
2023-07-03T03:18:23.517Z,96576.56
2023-07-03T03:21:28.024Z,96572.34
2023-07-03T03:24:35.314Z,96577.09
2023-07-03T03:27:39.694Z,96578.06
2023-07-03T03:30:44.306Z,96576.63
2023-07-03T03:33:48.813Z,96566.72
2023-07-03T03:36:53.331Z,96563.19
2023-07-03T03:39:57.821Z,96555.34
2023-07-03T03:43:02.498Z,96565.28
2023-07-03T03:46:07.104Z,96567.03
2023-07-03T03:49:13.308Z,96572.34
2023-07-03T03:52:17.980Z,96570.72
2023-07-03T03:55:22.562Z,96575.13
2023-07-03T03:58:27.183Z,96583.97
2023-07-03T04:01:31.697Z,96595.09
2023-07-03T04:04:36.498Z,96598.63
2023-07-03T04:07:41.005Z,96604.72
2023-07-03T04:10:45.443Z,96602.09
2023-07-03T04:13:49.948Z,96603.19
2023-07-03T04:16:59.323Z,96607.41
2023-07-03T04:20:08.748Z,96597.28
2023-07-03T04:23:13.549Z,96607.28
2023-07-03T04:26:18.355Z,96610.94
2023-07-03T04:29:23.865Z,96621.09
2023-07-03T04:32:28.756Z,96624.00
2023-07-03T04:35:33.219Z,96627.88
2023-07-03T04:38:37.742Z,96632.56
2023-07-03T04:41:42.182Z,96625.69
2023-07-03T04:44:49.901Z,96634.72
2023-07-03T04:47:54.607Z,96630.09
2023-07-03T04:50:59.981Z,96629.84
2023-07-03T04:54:04.777Z,96628.44
2023-07-03T04:57:09.178Z,96628.38
2023-07-03T05:00:17.709Z,96635.84
2023-07-03T05:03:22.429Z,96637.13
2023-07-03T05:06:27.275Z,96638.03
2023-07-03T05:09:34.905Z,96642.63
2023-07-03T05:12:39.504Z,96643.28
2023-07-03T05:15:43.925Z,96643.94
2023-07-03T05:18:48.481Z,96643.13
2023-07-03T05:21:52.891Z,96644.91
2023-07-03T05:24:57.451Z,96638.91
2023-07-03T05:28:01.952Z,96643.69
2023-07-03T05:31:06.448Z,96638.78
2023-07-03T05:34:10.888Z,96635.69
2023-07-03T05:37:15.277Z,96631.94
2023-07-03T05:40:19.759Z,96633.72
2023-07-03T05:43:24.558Z,96646.22
2023-07-03T05:46:28.993Z,96640.03
2023-07-03T05:49:33.446Z,96642.91
2023-07-03T05:52:40.795Z,96640.47
2023-07-03T05:55:53.570Z,96639.03
2023-07-03T05:58:57.975Z,96642.72
2023-07-03T06:02:03.786Z,96645.66
2023-07-03T06:05:08.521Z,96645.75
2023-07-03T06:08:14.035Z,96651.13
2023-07-03T06:11:18.466Z,96656.16
2023-07-03T06:14:23.540Z,96650.47
2023-07-03T06:17:29.894Z,96656.38
2023-07-03T06:20:35.387Z,96660.78
2023-07-03T06:23:39.815Z,96652.38
2023-07-03T06:26:44.526Z,96653.50
2023-07-03T06:29:48.952Z,96655.34
2023-07-03T06:32:53.365Z,96646.69
2023-07-03T06:36:00.827Z,96650.69
2023-07-03T06:39:06.029Z,96650.03
2023-07-03T06:42:11.247Z,96651.16
2023-07-03T06:45:20.443Z,96665.69
2023-07-03T06:48:24.838Z,96654.72
2023-07-03T06:51:30.916Z,96655.19
2023-07-03T06:54:35.372Z,96656.28
2023-07-03T06:57:39.894Z,96659.22
2023-07-03T07:00:44.336Z,96664.66
2023-07-03T07:03:49.333Z,96668.50
2023-07-03T07:06:54.465Z,96671.72
2023-07-03T07:09:58.966Z,96668.53
2023-07-03T07:13:03.360Z,96668.53
2023-07-03T07:16:11.979Z,96665.34
2023-07-03T07:19:16.467Z,96651.41
2023-07-03T07:22:20.871Z,96653.16
2023-07-03T07:25:25.355Z,96655.88
2023-07-03T07:28:29.902Z,96648.97
2023-07-03T07:31:40.549Z,96655.44
2023-07-03T07:34:46.660Z,96650.13
2023-07-03T07:37:51.105Z,96657.69
2023-07-03T07:41:03.097Z,96650.50
2023-07-03T07:44:08.801Z,96648.94
2023-07-03T07:47:13.256Z,96645.88
2023-07-03T07:50:17.712Z,96653.88
2023-07-03T07:53:22.242Z,96651.78
2023-07-03T07:56:27.911Z,96641.69
2023-07-03T07:59:34.235Z,96642.66
2023-07-03T08:02:38.859Z,96650.81
2023-07-03T08:05:44.885Z,96649.09
2023-07-03T08:08:50.372Z,96642.03
2023-07-03T08:11:54.769Z,96654.44
2023-07-03T08:14:59.179Z,96646.78
2023-07-03T08:18:03.665Z,96633.81
2023-07-03T08:21:08.209Z,96639.38
2023-07-03T08:24:12.752Z,96645.28
2023-07-03T08:27:17.127Z,96643.91
2023-07-03T08:30:23.218Z,96644.97
2023-07-03T08:33:27.794Z,96640.91
2023-07-03T08:39:40.185Z,96632.69
2023-07-03T08:42:54.382Z,96625.94
2023-07-03T08:45:58.910Z,96640.44
2023-07-03T08:49:07.029Z,96635.69
2023-07-03T08:52:13.107Z,96636.09
2023-07-03T08:55:21.537Z,96638.84
2023-07-03T08:58:26.149Z,96646.44
2023-07-03T09:01:34.383Z,96631.84
2023-07-03T09:04:39.872Z,96633.69
2023-07-03T09:07:49.831Z,96633.16
2023-07-03T09:10:54.718Z,96635.75
2023-07-03T09:14:01.732Z,96638.00
2023-07-03T09:17:10.625Z,96632.84
2023-07-03T09:20:15.910Z,96645.38
2023-07-03T09:23:22.515Z,96644.97
2023-07-03T09:26:31.721Z,96636.69
2023-07-03T09:29:37.674Z,96638.00
2023-07-03T09:32:42.171Z,96637.56
2023-07-03T09:35:48.921Z,96633.78
2023-07-03T09:38:53.577Z,96634.25
2023-07-03T09:42:06.177Z,96637.03
2023-07-03T09:45:13.377Z,96641.28
2023-07-03T09:48:23.273Z,96639.97
2023-07-03T09:51:31.475Z,96639.31
2023-07-03T09:54:41.966Z,96642.59
2023-07-03T09:57:48.147Z,96627.97
2023-07-03T10:00:55.432Z,96631.78
2023-07-03T10:04:03.001Z,96628.25
2023-07-03T10:07:08.451Z,96624.72
2023-07-03T10:13:38.556Z,96617.69
2023-07-03T10:16:44.862Z,96620.09
2023-07-03T10:19:54.538Z,96621.50
2023-07-03T10:23:00.774Z,96615.50
2023-07-03T10:26:05.934Z,96622.31
2023-07-03T10:29:18.909Z,96620.16
2023-07-03T10:32:25.359Z,96621.13
2023-07-03T10:35:31.696Z,96618.03
2023-07-03T10:38:55.499Z,96615.09
2023-07-03T10:42:04.269Z,96622.47
2023-07-03T10:45:11.687Z,96624.28
2023-07-03T10:48:18.260Z,96619.03
2023-07-03T10:51:26.609Z,96613.78
2023-07-03T10:54:34.521Z,96614.88
2023-07-03T10:57:43.284Z,96619.44
2023-07-03T11:01:06.318Z,96613.06
2023-07-03T11:04:23.942Z,96619.34
2023-07-03T11:07:37.176Z,96612.50
2023-07-03T11:10:57.397Z,96621.69
2023-07-03T11:14:02.248Z,96613.66
2023-07-03T11:17:12.184Z,96607.34
2023-07-03T11:20:24.767Z,96600.09
2023-07-03T11:23:33.375Z,96609.91
2023-07-03T11:29:49.401Z,96609.69
2023-07-03T11:32:55.342Z,96598.28
2023-07-03T11:36:00.908Z,96599.34
2023-07-03T11:45:28.184Z,96588.69
2023-07-03T11:48:35.005Z,96588.53
2023-07-03T11:51:39.988Z,96589.31
2023-07-03T11:54:44.587Z,96584.78
2023-07-03T11:58:09.005Z,96593.66
2023-07-03T12:01:22.705Z,96592.88
2023-07-03T12:04:51.615Z,96590.63
2023-07-03T12:07:56.167Z,96585.19
2023-07-03T12:11:01.240Z,96584.94
2023-07-03T12:14:06.040Z,96591.47
2023-07-03T12:17:17.416Z,96582.72
2023-07-03T12:20:22.924Z,96578.69
2023-07-03T12:23:35.964Z,96575.59
2023-07-03T12:26:41.806Z,96570.53
2023-07-03T12:29:47.047Z,96580.03
2023-07-03T12:32:52.508Z,96575.66
2023-07-03T12:35:56.970Z,96572.63
2023-07-03T12:39:10.198Z,96557.94
2023-07-03T12:42:23.440Z,96571.28
2023-07-03T12:45:30.964Z,96573.03
2023-07-03T12:48:35.385Z,96572.16
2023-07-03T12:51:39.733Z,96563.09
2023-07-03T12:54:44.190Z,96557.97
2023-07-03T12:57:49.945Z,96553.13
2023-07-03T13:01:08.348Z,96552.88
2023-07-03T13:04:12.981Z,96547.84
2023-07-03T13:07:19.368Z,96559.13
2023-07-03T13:10:24.209Z,96554.22
2023-07-03T13:13:29.110Z,96554.81
2023-07-03T13:16:35.476Z,96547.31
2023-07-03T13:19:40.039Z,96550.09
2023-07-03T13:22:52.528Z,96563.38
2023-07-03T13:25:57.283Z,96556.16
2023-07-03T13:29:02.779Z,96546.88
2023-07-03T13:32:14.344Z,96552.38
2023-07-03T13:35:26.101Z,96550.19
2023-07-03T13:38:32.028Z,96548.78
2023-07-03T13:41:37.359Z,96550.50
2023-07-03T13:44:42.883Z,96553.72
2023-07-03T13:47:47.438Z,96541.50
2023-07-03T13:50:53.612Z,96548.00
2023-07-03T13:54:10.606Z,96545.84
2023-07-03T13:57:16.748Z,96538.09
2023-07-03T14:00:21.916Z,96540.63
2023-07-03T14:03:26.476Z,96541.88
2023-07-03T14:06:31.307Z,96542.69
2023-07-03T14:09:35.744Z,96533.56
2023-07-03T14:12:40.170Z,96532.19
2023-07-03T14:15:44.721Z,96535.16
2023-07-03T14:18:50.178Z,96524.78
2023-07-03T14:21:54.626Z,96533.84
2023-07-03T14:25:00.857Z,96527.16
2023-07-03T14:28:05.703Z,96529.03
2023-07-03T14:31:11.922Z,96522.53
2023-07-03T14:34:16.426Z,96531.72
2023-07-03T14:37:23.835Z,96532.88
2023-07-03T14:40:28.253Z,96529.66
2023-07-03T14:43:33.027Z,96518.41
2023-07-03T14:46:37.526Z,96524.56
2023-07-03T14:49:43.811Z,96520.88
2023-07-03T14:52:48.682Z,96518.38
2023-07-03T14:55:57.146Z,96523.88
2023-07-03T14:59:01.538Z,96518.38
2023-07-03T15:02:06.478Z,96529.38
2023-07-03T15:05:12.219Z,96513.84
2023-07-03T15:08:16.647Z,96505.50
2023-07-03T15:11:21.129Z,96511.88
2023-07-03T15:14:25.550Z,96511.72
2023-07-03T15:17:29.982Z,96511.78
2023-07-03T15:20:39.360Z,96510.13
2023-07-03T15:23:44.095Z,96504.22
2023-07-03T15:26:48.697Z,96508.19
2023-07-03T15:29:53.161Z,96504.63
2023-07-03T15:32:57.771Z,96502.78
2023-07-03T15:36:03.583Z,96498.78
2023-07-03T15:39:08.035Z,96487.75
2023-07-03T15:42:12.590Z,96492.78
2023-07-03T15:45:17.036Z,96501.22
2023-07-03T15:48:21.481Z,96494.13
2023-07-03T15:51:25.918Z,96495.56
2023-07-03T15:54:30.398Z,96501.28
2023-07-03T15:57:34.825Z,96503.25
2023-07-03T16:00:39.310Z,96500.06
2023-07-03T16:03:44.334Z,96495.72
2023-07-03T16:06:51.881Z,96508.97
2023-07-03T16:09:56.377Z,96512.81
2023-07-03T16:13:00.759Z,96509.53
2023-07-03T16:16:11.289Z,96521.97
2023-07-03T16:19:15.800Z,96520.03
2023-07-03T16:22:22.380Z,96526.81
2023-07-03T16:25:26.760Z,96537.81
2023-07-03T16:28:32.839Z,96535.97
2023-07-03T16:31:39.031Z,96541.19
2023-07-03T16:34:43.616Z,96540.28
2023-07-03T16:37:48.964Z,96537.81
2023-07-03T16:40:57.200Z,96543.50
2023-07-03T16:44:01.690Z,96548.06
2023-07-03T16:47:06.766Z,96543.84
2023-07-03T16:50:12.053Z,96545.34
2023-07-03T16:53:19.166Z,96549.66
2023-07-03T16:56:25.409Z,96550.50
2023-07-03T16:59:30.051Z,96552.00
2023-07-03T17:02:34.430Z,96547.97
2023-07-03T17:05:40.862Z,96552.44
2023-07-03T17:08:46.950Z,96551.53
2023-07-03T17:11:51.387Z,96542.53
2023-07-03T17:14:56.102Z,96540.13
2023-07-03T17:18:01.602Z,96545.13
2023-07-03T17:21:06.098Z,96550.72
2023-07-03T17:24:10.469Z,96542.16
2023-07-03T17:27:15.463Z,96545.72
2023-07-03T17:30:19.923Z,96546.59
2023-07-03T17:33:24.424Z,96544.19
2023-07-03T17:36:28.838Z,96533.91
2023-07-03T17:39:33.287Z,96532.13
2023-07-03T17:42:38.965Z,96537.72
2023-07-03T17:45:45.593Z,96534.47
2023-07-03T17:48:50.160Z,96533.50
2023-07-03T17:51:54.637Z,96529.28
2023-07-03T17:54:59.098Z,96532.97
2023-07-03T17:58:04.054Z,96535.25
2023-07-03T18:01:08.579Z,96534.38
2023-07-03T18:04:13.027Z,96532.06
2023-07-03T18:07:17.447Z,96526.19
2023-07-03T18:10:21.863Z,96532.00
2023-07-03T18:13:28.256Z,96527.53
2023-07-03T18:16:32.962Z,96529.53
2023-07-03T18:19:37.636Z,96537.84
2023-07-03T18:22:42.081Z,96525.91
2023-07-03T18:25:47.688Z,96525.78
2023-07-03T18:28:52.050Z,96534.13
2023-07-03T18:31:56.563Z,96537.84
2023-07-03T18:35:01.155Z,96535.38
2023-07-03T18:38:05.700Z,96536.91
2023-07-03T18:41:10.214Z,96529.69
2023-07-03T18:44:14.595Z,96538.44
2023-07-03T18:47:20.034Z,96530.19
2023-07-03T18:50:24.416Z,96534.44
2023-07-03T18:53:29.311Z,96536.38
2023-07-03T18:56:33.719Z,96539.28
2023-07-03T18:59:38.306Z,96540.38
2023-07-03T19:02:42.898Z,96545.78
2023-07-03T19:09:21.323Z,96555.41
2023-07-03T19:12:26.141Z,96566.72
2023-07-03T19:15:30.611Z,96566.59
2023-07-03T19:18:36.789Z,96568.00
2023-07-03T19:21:41.499Z,96581.25
2023-07-03T19:24:46.094Z,96576.53
2023-07-03T19:27:50.707Z,96579.59
2023-07-03T19:30:56.291Z,96580.16
2023-07-03T19:34:03.184Z,96584.69
2023-07-03T19:37:08.161Z,96588.38
2023-07-03T19:40:12.611Z,96602.22
2023-07-03T19:43:17.317Z,96602.31
2023-07-03T19:46:21.764Z,96598.09
2023-07-03T19:49:26.719Z,96600.72
2023-07-03T19:52:31.363Z,96610.31
2023-07-03T19:55:36.787Z,96604.25
2023-07-03T19:58:41.375Z,96613.72
2023-07-03T20:01:45.879Z,96609.78
2023-07-03T20:04:50.447Z,96616.56
2023-07-03T20:07:54.923Z,96619.50
2023-07-03T20:10:59.913Z,96637.72
2023-07-03T20:14:04.872Z,96640.81
2023-07-03T20:17:09.616Z,96651.72
2023-07-03T20:20:15.227Z,96655.81
2023-07-03T20:23:19.704Z,96653.41
2023-07-03T20:26:25.482Z,96648.94
2023-07-03T20:29:30.141Z,96662.75
2023-07-03T20:32:35.441Z,96661.19
2023-07-03T20:35:40.080Z,96663.38
2023-07-03T20:38:44.616Z,96663.38
2023-07-03T20:41:49.613Z,96658.00
2023-07-03T20:44:56.528Z,96654.34
2023-07-03T20:48:00.982Z,96652.69
2023-07-03T20:51:13.246Z,96647.88
2023-07-03T20:54:34.614Z,96658.91
2023-07-03T20:57:39.297Z,96655.66
2023-07-03T21:00:43.844Z,96649.69
2023-07-03T21:03:49.726Z,96658.47
2023-07-03T21:06:58.099Z,96656.41
2023-07-03T21:10:03.946Z,96657.25
2023-07-03T21:13:08.488Z,96663.97
2023-07-03T21:16:14.165Z,96663.16
2023-07-03T21:19:18.652Z,96668.25
2023-07-03T21:22:23.286Z,96672.56
2023-07-03T21:25:30.495Z,96666.97
2023-07-03T21:28:34.915Z,96661.91
2023-07-03T21:31:39.793Z,96661.81
2023-07-03T21:34:44.580Z,96667.53
2023-07-03T21:37:49.016Z,96669.75
2023-07-03T21:40:54.326Z,96677.03
2023-07-03T21:44:00.210Z,96677.09
2023-07-03T21:47:04.863Z,96670.59
2023-07-03T21:50:10.250Z,96678.38
2023-07-03T21:53:14.613Z,96675.78
2023-07-03T21:56:20.190Z,96683.75
2023-07-03T21:59:24.685Z,96670.56
2023-07-03T22:02:29.397Z,96669.81
2023-07-03T22:05:34.408Z,96673.75
2023-07-03T22:08:38.871Z,96660.38
2023-07-03T22:11:43.469Z,96665.16
2023-07-03T22:14:47.921Z,96659.66
2023-07-03T22:17:52.643Z,96659.91
2023-07-03T22:20:57.257Z,96664.66
2023-07-03T22:24:03.328Z,96664.16
2023-07-03T22:27:07.707Z,96654.63
2023-07-03T22:30:13.357Z,96656.53
2023-07-03T22:33:17.962Z,96655.34
2023-07-03T22:36:22.583Z,96655.47
2023-07-03T22:39:27.017Z,96652.66
2023-07-03T22:42:31.427Z,96658.91
2023-07-03T22:45:35.937Z,96660.38
2023-07-03T22:48:43.895Z,96656.28
2023-07-03T22:51:48.523Z,96652.50
2023-07-03T22:54:53.163Z,96646.59
2023-07-03T22:57:57.565Z,96657.28
2023-07-03T23:01:11.994Z,96662.25
2023-07-03T23:04:16.493Z,96652.28
2023-07-03T23:07:22.481Z,96656.03
2023-07-03T23:10:26.997Z,96653.00
2023-07-03T23:13:32.715Z,96667.97
2023-07-03T23:16:37.399Z,96669.25
2023-07-03T23:19:41.875Z,96667.56
2023-07-03T23:22:47.147Z,96659.91
2023-07-03T23:25:55.989Z,96667.13
2023-07-03T23:29:02.250Z,96662.41
2023-07-03T23:32:07.071Z,96666.47
2023-07-03T23:35:11.922Z,96659.03
2023-07-03T23:38:16.463Z,96657.59
2023-07-03T23:41:21.636Z,96656.72
2023-07-03T23:44:26.119Z,96660.72
2023-07-03T23:47:30.735Z,96664.16
2023-07-03T23:50:35.211Z,96661.06
2023-07-03T23:53:41.160Z,96661.19
2023-07-03T23:56:49.647Z,96653.31
2023-07-03T23:59:54.354Z,96655.84
